createdAt,value
2023-07-05T00:01:44.685Z,16.5
2023-07-05T00:06:27.990Z,16.4
2023-07-05T00:15:54.222Z,16.2
2023-07-05T00:20:37.545Z,16
2023-07-05T00:25:20.601Z,16
2023-07-05T00:30:03.928Z,15.8
2023-07-05T00:39:30.176Z,16.1
2023-07-05T00:44:13.523Z,16.1
2023-07-05T00:53:39.905Z,16
2023-07-05T00:58:23.273Z,16
2023-07-05T01:03:06.494Z,15.8
2023-07-05T01:12:33.059Z,15.7
2023-07-05T01:17:16.258Z,15.8
2023-07-05T01:21:59.161Z,15.9
2023-07-05T01:31:25.698Z,16.3
2023-07-05T01:36:09.050Z,16.3
2023-07-05T01:50:18.733Z,16.7
2023-07-05T01:55:02.010Z,16.9
2023-07-05T01:59:45.313Z,17.9
2023-07-05T02:04:28.550Z,18.2
2023-07-05T02:09:11.757Z,18.2
2023-07-05T02:13:55.079Z,18.1
2023-07-05T02:23:21.627Z,18.3
2023-07-05T02:28:04.911Z,17.5
2023-07-05T02:32:48.096Z,17.1
2023-07-05T02:37:31.400Z,16.8
2023-07-05T02:42:14.610Z,16.7
2023-07-05T02:46:57.519Z,16.3
2023-07-05T02:51:40.801Z,16.2
2023-07-05T02:56:24.037Z,16.3
2023-07-05T03:01:07.255Z,16.2
2023-07-05T03:05:50.539Z,16
2023-07-05T03:10:33.850Z,16.2
2023-07-05T03:15:17.134Z,15.9
2023-07-05T03:24:43.575Z,15.7
2023-07-05T03:29:27.047Z,15.6
2023-07-05T03:34:10.273Z,15.6
2023-07-05T03:38:53.398Z,15.7
2023-07-05T03:43:36.753Z,15.7
2023-07-05T03:48:19.914Z,15.7
2023-07-05T03:53:03.207Z,15.6
2023-07-05T03:57:46.419Z,15.6
2023-07-05T04:02:29.731Z,15.6
2023-07-05T04:07:12.180Z,15.8
2023-07-05T04:11:54.831Z,16.1
2023-07-05T04:16:37.606Z,16.2
2023-07-05T04:21:20.345Z,16.4
2023-07-05T04:26:03.131Z,16.9
2023-07-05T04:30:45.062Z,16.9
2023-07-05T04:35:27.757Z,17.1
2023-07-05T04:40:10.483Z,17.2
2023-07-05T04:44:53.230Z,17.3
2023-07-05T04:49:36.069Z,17.3
2023-07-05T04:54:18.724Z,17.4
2023-07-05T04:59:01.487Z,17.7
2023-07-05T05:03:44.261Z,17.8
2023-07-05T05:13:09.620Z,18
2023-07-05T05:17:52.437Z,18
2023-07-05T05:22:35.088Z,18.1
2023-07-05T05:27:17.802Z,18.1
2023-07-05T05:32:00.574Z,18.2
2023-07-05T05:36:43.288Z,18.1
2023-07-05T05:41:26.069Z,17.9
2023-07-05T05:46:08.844Z,17.9
2023-07-05T05:50:51.403Z,17.8
2023-07-05T05:55:34.209Z,17.3
2023-07-05T06:04:59.641Z,16
2023-07-05T06:09:41.631Z,15.8
2023-07-05T06:14:24.334Z,15.8
2023-07-05T06:19:07.162Z,15.8
2023-07-05T06:23:49.933Z,15.8
2023-07-05T06:28:32.630Z,15.8
2023-07-05T06:33:15.262Z,15.7
2023-07-05T06:42:40.845Z,15.9
2023-07-05T06:47:23.479Z,15.9
2023-07-05T06:52:06.192Z,16
2023-07-05T06:56:48.986Z,16.2
2023-07-05T07:01:31.870Z,16.4
2023-07-05T07:06:14.483Z,16.5
2023-07-05T07:10:57.114Z,16.7
2023-07-05T07:15:39.966Z,16.9
2023-07-05T07:20:22.638Z,17.2
2023-07-05T07:25:05.432Z,17.5
2023-07-05T07:29:48.124Z,17.5
2023-07-05T07:34:30.937Z,17.6
2023-07-05T07:39:13.570Z,17.7
2023-07-05T07:43:56.311Z,17.5
2023-07-05T07:48:38.994Z,17.9
2023-07-05T07:53:21.819Z,19.3
2023-07-05T07:58:04.474Z,19.1
2023-07-05T08:02:47.173Z,19
2023-07-05T08:07:29.892Z,20.4
2023-07-05T08:12:12.847Z,20.2
2023-07-05T08:16:55.584Z,19.7
2023-07-05T08:21:38.123Z,19.5
2023-07-05T08:26:20.893Z,19.8
2023-07-05T08:31:03.756Z,20.1
2023-07-05T08:35:46.323Z,20.3
2023-07-05T08:45:11.857Z,21
2023-07-05T08:49:54.692Z,21.5
2023-07-05T08:54:37.300Z,22.4
2023-07-05T09:04:03.322Z,22.5
2023-07-05T09:08:46.467Z,22.8
2023-07-05T09:13:29.869Z,23
2023-07-05T09:18:13.074Z,22.7
2023-07-05T09:32:22.795Z,18.1
2023-07-05T09:37:05.691Z,17.1
2023-07-05T09:41:48.897Z,16.5
2023-07-05T09:46:32.318Z,16.1
2023-07-05T09:51:15.419Z,15.9
2023-07-05T09:55:58.722Z,15.9
2023-07-05T10:00:41.731Z,16
2023-07-05T10:05:24.935Z,16.1
2023-07-05T10:10:08.258Z,16
2023-07-05T10:19:34.797Z,16
2023-07-05T10:29:01.328Z,15.7
2023-07-05T10:33:44.580Z,15.7
2023-07-05T10:43:11.150Z,15.5
2023-07-05T10:52:37.612Z,15.6
2023-07-05T10:57:20.510Z,15.6
2023-07-05T11:02:03.714Z,16
2023-07-05T11:06:47.207Z,17.1
2023-07-05T11:11:30.449Z,19.4
2023-07-05T11:16:13.746Z,20.4
2023-07-05T11:20:56.996Z,21.5
2023-07-05T11:25:40.230Z,21.4
2023-07-05T11:30:23.354Z,21.4
2023-07-05T11:35:06.734Z,21.9
2023-07-05T11:39:50.113Z,21.7
2023-07-05T11:44:33.358Z,21.5
2023-07-05T11:49:16.586Z,22
2023-07-05T11:53:59.855Z,22.7
2023-07-05T11:58:42.085Z,23.1
2023-07-05T12:03:25.000Z,23.1
2023-07-05T12:08:07.658Z,23.5
2023-07-05T12:12:50.479Z,23.9
2023-07-05T12:22:15.887Z,25.8
2023-07-05T12:26:58.609Z,26.1
2023-07-05T12:31:41.304Z,25.5
2023-07-05T12:36:24.193Z,25.3
2023-07-05T12:41:06.126Z,24.4
2023-07-05T12:45:48.839Z,24.3
2023-07-05T12:55:14.184Z,26.2
2023-07-05T12:59:57.005Z,27.5
2023-07-05T13:04:39.770Z,27.1
2023-07-05T13:09:22.479Z,27.6
2023-07-05T13:14:04.980Z,27.7
2023-07-05T13:18:48.014Z,27.4
2023-07-05T13:23:30.790Z,27.3
2023-07-05T13:32:56.155Z,27.8
2023-07-05T13:37:38.921Z,29.7
2023-07-05T13:42:21.604Z,29.1
2023-07-05T13:51:46.271Z,27.9
2023-07-05T13:56:29.159Z,28.3
2023-07-05T14:05:54.548Z,28.9
2023-07-05T14:10:37.337Z,29.2
2023-07-05T14:15:20.066Z,28.5
2023-07-05T14:20:02.756Z,28.5
2023-07-05T14:24:45.278Z,27.6
2023-07-05T14:34:10.903Z,25.3
2023-07-05T14:43:36.338Z,26.3
2023-07-05T14:48:19.092Z,27.7
2023-07-05T14:53:01.719Z,28
2023-07-05T15:02:27.335Z,30.1
2023-07-05T15:07:09.997Z,29.3
2023-07-05T15:11:52.818Z,30.8
2023-07-05T15:16:35.508Z,29.7
2023-07-05T15:21:18.307Z,31
2023-07-05T15:26:00.065Z,29.4
2023-07-05T15:35:25.829Z,29.4
2023-07-05T15:40:08.283Z,28.1
2023-07-05T15:44:51.007Z,27.8
2023-07-05T15:58:59.432Z,28
2023-07-05T16:03:42.063Z,28.8
2023-07-05T16:13:07.425Z,29.4
2023-07-05T16:17:50.275Z,28.7
2023-07-05T16:22:33.105Z,28.9
2023-07-05T16:27:15.763Z,28.3
2023-07-05T16:31:58.521Z,28.4
2023-07-05T16:36:41.228Z,27.5
2023-07-05T16:46:06.711Z,28
2023-07-05T16:55:31.985Z,27.1
2023-07-05T17:04:57.493Z,26.1
2023-07-05T17:09:40.217Z,25.1
2023-07-05T17:14:22.934Z,25.2
2023-07-05T17:19:05.000Z,24.1
2023-07-05T17:28:30.529Z,24.7
2023-07-05T17:42:38.675Z,24.7
2023-07-05T17:47:21.406Z,24.4
2023-07-05T17:52:04.282Z,23.2
2023-07-05T17:56:46.965Z,23
2023-07-05T18:06:12.451Z,22.6
2023-07-05T18:15:37.878Z,22.4
2023-07-05T18:25:03.405Z,22.5
2023-07-05T18:34:28.846Z,22.8
2023-07-05T18:39:11.587Z,23.1
2023-07-05T18:43:54.300Z,22.6
2023-07-05T18:48:37.051Z,21.4
2023-07-05T18:53:19.714Z,21.1
2023-07-05T18:58:02.346Z,20.8
2023-07-05T19:07:27.976Z,20.5
2023-07-05T19:12:10.692Z,20.2
2023-07-05T19:16:53.413Z,20.1
2023-07-05T19:31:01.404Z,19.4
2023-07-05T19:35:44.206Z,19.3
2023-07-05T19:40:26.900Z,19.1
2023-07-05T19:45:09.755Z,18.9
2023-07-05T19:49:52.324Z,18.7
2023-07-05T19:54:35.220Z,18.6
2023-07-05T19:59:17.846Z,18.4
2023-07-05T20:04:00.601Z,18.3
2023-07-05T20:13:25.240Z,18.1
2023-07-05T20:18:08.046Z,18.2
2023-07-05T20:27:33.510Z,18
2023-07-05T20:36:59.073Z,17.8
2023-07-05T20:41:41.669Z,17.6
2023-07-05T20:46:24.384Z,17.5
2023-07-05T20:51:07.085Z,17.4
2023-07-05T21:00:32.613Z,17.1
2023-07-05T21:09:58.162Z,16.9
2023-07-05T21:14:40.810Z,16.7
2023-07-05T21:24:06.257Z,16.6
2023-07-05T21:28:49.124Z,16.5
2023-07-05T21:33:31.880Z,16.4
2023-07-05T21:38:14.502Z,16.2
2023-07-05T21:52:22.804Z,16.1
2023-07-05T21:57:05.474Z,15.9
2023-07-05T22:01:48.065Z,15.8
2023-07-05T22:06:30.890Z,15.7
2023-07-05T22:11:13.696Z,15.5
2023-07-05T22:20:38.996Z,15.7
2023-07-05T22:25:21.711Z,15.7
2023-07-05T22:30:03.700Z,15.5
2023-07-05T22:34:46.510Z,15.2
2023-07-05T22:39:29.216Z,15
2023-07-05T22:44:12.073Z,14.9
2023-07-05T22:48:54.654Z,14.7
2023-07-05T22:58:20.127Z,14.4
2023-07-05T23:07:45.638Z,14.2
2023-07-05T23:17:11.057Z,14.3
2023-07-05T23:21:53.906Z,14.1
2023-07-05T23:36:02.008Z,13.5
2023-07-05T23:40:44.079Z,13.4
2023-07-05T23:45:26.687Z,13.3
2023-07-05T23:59:34.998Z,13.2
